createdAt,value
2023-04-20T00:02:17.615Z,72.67
2023-04-20T00:04:44.179Z,72.82
2023-04-20T00:07:11.013Z,72.32
2023-04-20T00:09:37.485Z,72.62
2023-04-20T00:12:04.225Z,72.62
2023-04-20T00:14:30.780Z,72.75
2023-04-20T00:16:57.262Z,73.46
2023-04-20T00:19:23.930Z,72.85
2023-04-20T00:21:50.369Z,73.52
2023-04-20T00:24:16.818Z,74.26
2023-04-20T00:26:43.387Z,73.77
2023-04-20T00:29:09.986Z,74.42
2023-04-20T00:31:36.866Z,74.21
2023-04-20T00:34:03.376Z,74.28
2023-04-20T00:36:30.059Z,74.66
2023-04-20T00:38:58.897Z,74.85
2023-04-20T00:41:28.327Z,75.14
2023-04-20T00:43:54.864Z,74.96
2023-04-20T00:46:21.881Z,74.79
2023-04-20T00:48:51.184Z,74.97
2023-04-20T00:51:19.348Z,74.90
2023-04-20T00:53:46.028Z,75.30
2023-04-20T00:56:16.557Z,75.31
2023-04-20T00:58:43.644Z,75.71
2023-04-20T01:01:11.196Z,75.98
2023-04-20T01:03:40.041Z,75.39
2023-04-20T01:06:07.436Z,75.36
2023-04-20T01:08:33.870Z,75.04
2023-04-20T01:11:03.578Z,75.39
2023-04-20T01:13:30.343Z,75.27
2023-04-20T01:16:00.330Z,75.39
2023-04-20T01:18:27.039Z,75.40
2023-04-20T01:20:53.432Z,75.43
2023-04-20T01:23:20.349Z,76.00
2023-04-20T01:25:46.791Z,75.99
2023-04-20T01:28:14.544Z,75.53
2023-04-20T01:30:42.186Z,75.73
2023-04-20T01:33:08.700Z,75.49
2023-04-20T01:35:35.202Z,75.22
2023-04-20T01:38:01.772Z,75.88
2023-04-20T01:40:28.209Z,76.00
2023-04-20T01:42:54.688Z,76.28
2023-04-20T01:45:22.433Z,76.43
2023-04-20T01:47:48.928Z,76.26
2023-04-20T01:50:15.495Z,76.29
2023-04-20T01:52:41.954Z,76.42
2023-04-20T01:55:11.588Z,76.30
2023-04-20T01:57:38.052Z,76.61
2023-04-20T02:00:05.184Z,76.56
2023-04-20T02:02:40.822Z,76.70
2023-04-20T02:05:07.904Z,76.15
2023-04-20T02:07:34.407Z,76.20
2023-04-20T02:10:00.835Z,75.49
2023-04-20T02:12:27.274Z,75.09
2023-04-20T02:14:53.712Z,74.87
2023-04-20T02:17:21.470Z,75.06
2023-04-20T02:19:47.970Z,75.03
2023-04-20T02:22:14.402Z,75.10
2023-04-20T02:24:41.464Z,74.85
2023-04-20T02:27:07.922Z,75.21
2023-04-20T02:29:35.500Z,75.13
2023-04-20T02:32:01.983Z,75.40
2023-04-20T02:34:28.423Z,75.47
2023-04-20T02:36:56.693Z,74.87
2023-04-20T02:39:23.124Z,74.78
2023-04-20T02:41:50.534Z,74.76
2023-04-20T02:44:17.022Z,74.71
2023-04-20T02:46:43.694Z,75.11
2023-04-20T02:49:10.493Z,74.88
2023-04-20T02:51:41.825Z,74.80
2023-04-20T02:54:08.348Z,74.35
2023-04-20T02:56:35.366Z,74.63
2023-04-20T02:59:05.448Z,74.65
2023-04-20T03:01:42.427Z,74.62
2023-04-20T03:04:19.382Z,74.48
2023-04-20T03:06:53.736Z,74.99
2023-04-20T03:09:26.017Z,74.99
2023-04-20T03:12:18.478Z,75.15
2023-04-20T03:15:12.029Z,74.78
2023-04-20T03:17:57.556Z,74.58
2023-04-20T03:20:24.888Z,74.53
2023-04-20T03:22:51.415Z,74.67
2023-04-20T03:25:20.622Z,74.86
2023-04-20T03:27:58.095Z,74.76
2023-04-20T03:30:25.142Z,74.60
2023-04-20T03:32:57.945Z,75.22
2023-04-20T03:35:24.792Z,74.65
2023-04-20T03:37:51.235Z,75.01
2023-04-20T03:40:17.664Z,74.93
2023-04-20T03:42:44.170Z,74.79
2023-04-20T03:45:11.256Z,74.14
2023-04-20T03:47:37.877Z,74.44
2023-04-20T03:50:05.625Z,74.21
2023-04-20T03:52:32.068Z,73.40
2023-04-20T03:55:02.332Z,73.64
2023-04-20T03:57:29.126Z,74.22
2023-04-20T03:59:55.823Z,74.62
2023-04-20T04:02:24.793Z,74.53
2023-04-20T04:04:52.575Z,74.72
2023-04-20T04:07:21.256Z,74.73
2023-04-20T04:09:48.626Z,74.72
2023-04-20T04:12:15.709Z,74.49
2023-04-20T04:14:42.761Z,74.54
2023-04-20T04:17:14.021Z,74.54
2023-04-20T04:19:43.546Z,75.16
2023-04-20T04:22:10.099Z,75.23
2023-04-20T04:24:43.943Z,75.38
2023-04-20T04:27:11.706Z,74.66
2023-04-20T04:29:50.608Z,74.71
2023-04-20T04:32:19.327Z,74.56
2023-04-20T04:34:45.781Z,74.14
2023-04-20T04:37:13.001Z,74.80
2023-04-20T04:39:44.421Z,74.91
2023-04-20T04:42:18.584Z,74.79
2023-04-20T04:44:46.041Z,75.08
2023-04-20T04:47:17.894Z,74.77
2023-04-20T04:49:45.515Z,75.00
2023-04-20T04:52:12.019Z,75.14
2023-04-20T04:54:38.483Z,75.38
2023-04-20T04:57:04.996Z,74.25
2023-04-20T04:59:31.569Z,74.75
2023-04-20T05:01:58.039Z,74.50
2023-04-20T05:04:24.645Z,74.25
2023-04-20T05:06:51.338Z,74.39
2023-04-20T05:09:17.960Z,74.55
2023-04-20T05:11:44.548Z,74.39
2023-04-20T05:14:11.083Z,73.45
2023-04-20T05:16:37.952Z,74.32
2023-04-20T05:19:04.835Z,74.11
2023-04-20T05:21:32.639Z,74.26
2023-04-20T05:23:59.081Z,74.12
2023-04-20T05:26:25.711Z,74.66
2023-04-20T05:28:52.205Z,74.55
2023-04-20T05:31:18.814Z,74.86
2023-04-20T05:33:45.336Z,73.67
2023-04-20T05:36:11.805Z,73.51
2023-04-20T05:38:38.416Z,74.18
2023-04-20T05:41:04.919Z,74.34
2023-04-20T05:43:31.362Z,74.04
2023-04-20T05:46:00.782Z,74.26
2023-04-20T05:48:29.782Z,74.25
2023-04-20T05:50:56.419Z,74.05
2023-04-20T05:53:22.941Z,73.82
2023-04-20T05:55:49.372Z,74.18
2023-04-20T05:58:16.809Z,74.25
2023-04-20T06:00:43.218Z,73.50
2023-04-20T06:03:09.815Z,74.79
2023-04-20T06:05:36.993Z,74.29
2023-04-20T06:08:03.792Z,74.29
2023-04-20T06:10:32.539Z,74.08
2023-04-20T06:12:59.133Z,73.56
2023-04-20T06:15:25.557Z,74.17
2023-04-20T06:17:52.386Z,73.86
2023-04-20T06:20:20.465Z,73.82
2023-04-20T06:22:48.385Z,73.31
2023-04-20T06:25:17.737Z,73.43
2023-04-20T06:27:44.505Z,73.52
2023-04-20T06:30:11.635Z,74.45
2023-04-20T06:32:38.540Z,74.60
2023-04-20T06:35:06.594Z,73.97
2023-04-20T06:37:33.363Z,73.49
2023-04-20T06:39:59.820Z,74.38
2023-04-20T06:42:27.292Z,74.36
2023-04-20T06:44:57.056Z,73.77
2023-04-20T06:47:23.673Z,72.86
2023-04-20T06:49:50.210Z,73.27
2023-04-20T06:52:17.112Z,73.26
2023-04-20T06:54:43.971Z,73.16
2023-04-20T06:57:10.593Z,72.64
2023-04-20T06:59:37.310Z,71.47
2023-04-20T07:02:04.302Z,73.02
2023-04-20T07:04:30.966Z,72.75
2023-04-20T07:06:57.732Z,73.77
2023-04-20T07:09:24.989Z,72.68
2023-04-20T07:11:51.514Z,73.77
2023-04-20T07:14:18.113Z,72.76
2023-04-20T07:16:44.885Z,72.51
2023-04-20T07:19:11.578Z,72.94
2023-04-20T07:21:38.009Z,72.55
2023-04-20T07:24:04.796Z,72.12
2023-04-20T07:26:31.771Z,72.49
2023-04-20T07:28:58.376Z,72.35
2023-04-20T07:31:25.202Z,71.13
2023-04-20T07:33:51.979Z,71.92
2023-04-20T07:36:19.825Z,70.30
2023-04-20T07:38:46.877Z,71.00
2023-04-20T07:41:13.458Z,70.08
2023-04-20T07:43:40.341Z,70.90
2023-04-20T07:46:07.845Z,69.99
2023-04-20T07:48:35.005Z,70.90
2023-04-20T07:51:02.011Z,70.27
2023-04-20T07:53:31.629Z,70.36
2023-04-20T07:55:58.059Z,72.08
2023-04-20T07:58:24.955Z,71.19
2023-04-20T08:00:51.602Z,70.15
2023-04-20T08:03:18.461Z,70.40
2023-04-20T08:05:45.969Z,70.53
2023-04-20T08:08:12.766Z,71.07
2023-04-20T08:10:39.266Z,69.91
2023-04-20T08:13:05.975Z,69.87
2023-04-20T08:15:32.530Z,69.85
2023-04-20T08:17:59.413Z,70.17
2023-04-20T08:20:26.398Z,70.53
2023-04-20T08:22:53.321Z,71.40
2023-04-20T08:25:20.135Z,70.70
2023-04-20T08:27:46.958Z,71.04
2023-04-20T08:30:13.658Z,70.52
2023-04-20T08:32:40.955Z,70.65
2023-04-20T08:35:08.557Z,70.21
2023-04-20T08:37:35.293Z,71.36
2023-04-20T08:40:01.724Z,70.54
2023-04-20T08:42:28.217Z,71.64
2023-04-20T08:44:54.653Z,71.84
2023-04-20T08:47:21.360Z,72.23
2023-04-20T08:49:52.833Z,71.97
2023-04-20T08:52:19.326Z,72.71
2023-04-20T08:54:56.122Z,72.92
2023-04-20T08:57:23.807Z,72.46
2023-04-20T08:59:50.601Z,71.41
2023-04-20T09:02:17.154Z,72.58
2023-04-20T09:04:43.808Z,72.36
2023-04-20T09:07:21.263Z,72.37
2023-04-20T09:10:00.766Z,71.78
2023-04-20T09:12:28.464Z,72.93
2023-04-20T09:14:55.852Z,73.20
2023-04-20T09:17:37.015Z,73.39
2023-04-20T09:20:05.200Z,73.99
2023-04-20T09:22:36.626Z,72.62
2023-04-20T09:25:13.882Z,72.81
2023-04-20T09:27:40.436Z,72.79
2023-04-20T09:30:07.798Z,72.28
2023-04-20T09:32:35.629Z,72.67
2023-04-20T09:35:02.086Z,72.06
2023-04-20T09:37:28.610Z,72.01
2023-04-20T09:39:59.974Z,70.66
2023-04-20T09:42:28.775Z,72.67
2023-04-20T09:44:55.824Z,72.83
2023-04-20T09:47:22.619Z,72.24
2023-04-20T09:49:50.099Z,70.82
2023-04-20T09:52:18.572Z,71.58
2023-04-20T09:54:45.857Z,70.55
2023-04-20T09:57:14.203Z,71.37
2023-04-20T09:59:46.485Z,71.52
2023-04-20T10:02:13.720Z,72.12
2023-04-20T10:04:56.274Z,70.64
2023-04-20T10:07:27.325Z,71.39
2023-04-20T10:10:10.644Z,71.84
2023-04-20T10:12:50.225Z,71.19
2023-04-20T10:15:17.483Z,71.39
2023-04-20T10:17:44.570Z,70.89
2023-04-20T10:20:20.775Z,70.70
2023-04-20T10:22:47.494Z,70.27
2023-04-20T10:25:20.406Z,70.32
2023-04-20T10:27:54.655Z,70.76
2023-04-20T10:30:21.661Z,71.10
2023-04-20T10:32:48.203Z,70.74
2023-04-20T10:35:16.368Z,70.10
2023-04-20T10:37:51.089Z,71.42
2023-04-20T10:40:25.400Z,70.99
2023-04-20T10:42:51.837Z,72.21
2023-04-20T10:45:18.269Z,71.38
2023-04-20T10:47:45.522Z,71.86
2023-04-20T10:50:15.013Z,70.96
2023-04-20T10:52:42.855Z,70.98
2023-04-20T10:55:25.051Z,71.36
2023-04-20T10:57:52.197Z,72.23
2023-04-20T11:00:22.877Z,71.35
2023-04-20T11:02:54.034Z,72.33
2023-04-20T11:05:21.506Z,71.88
2023-04-20T11:07:52.604Z,72.14
2023-04-20T11:10:19.962Z,71.36
2023-04-20T11:12:46.779Z,71.53
2023-04-20T11:15:13.808Z,71.23
2023-04-20T11:17:40.317Z,72.24
2023-04-20T11:20:12.664Z,71.59
2023-04-20T11:22:40.776Z,71.48
2023-04-20T11:25:09.353Z,72.14
2023-04-20T11:27:36.710Z,72.43
2023-04-20T11:30:05.542Z,71.70
2023-04-20T11:32:33.561Z,70.54
2023-04-20T11:35:09.364Z,71.03
2023-04-20T11:37:51.171Z,70.99
2023-04-20T11:40:17.909Z,70.20
2023-04-20T11:42:44.365Z,69.89
2023-04-20T11:45:11.626Z,71.24
2023-04-20T11:47:41.076Z,70.65
2023-04-20T11:50:09.248Z,70.34
2023-04-20T11:52:35.889Z,70.95
2023-04-20T11:55:02.649Z,70.59
2023-04-20T11:57:29.148Z,70.31
2023-04-20T11:59:55.564Z,71.33
2023-04-20T12:02:22.802Z,70.00
2023-04-20T12:04:49.459Z,70.90
2023-04-20T12:07:16.155Z,72.04
2023-04-20T12:09:42.596Z,71.80
2023-04-20T12:12:09.828Z,72.05
2023-04-20T12:14:36.615Z,70.28
2023-04-20T12:17:04.566Z,71.37
2023-04-20T12:19:31.722Z,70.90
2023-04-20T12:21:58.180Z,71.43
2023-04-20T12:24:24.680Z,71.34
2023-04-20T12:26:51.130Z,69.75
2023-04-20T12:29:17.797Z,71.55
2023-04-20T12:31:44.438Z,71.42
2023-04-20T12:34:11.109Z,71.97
2023-04-20T12:36:37.672Z,71.22
2023-04-20T12:39:04.271Z,70.65
2023-04-20T12:41:30.734Z,72.60
2023-04-20T12:43:57.158Z,71.52
2023-04-20T12:46:23.589Z,70.54
2023-04-20T12:48:50.145Z,70.07
2023-04-20T12:51:16.759Z,70.78
2023-04-20T12:53:43.241Z,70.04
2023-04-20T12:56:09.915Z,69.65
2023-04-20T12:58:36.479Z,72.47
2023-04-20T13:01:03.552Z,71.52
2023-04-20T13:03:30.291Z,71.62
2023-04-20T13:05:56.956Z,69.65
2023-04-20T13:08:23.387Z,71.42
2023-04-20T13:10:49.799Z,72.18
2023-04-20T13:13:16.218Z,71.49
2023-04-20T13:15:42.608Z,71.64
2023-04-20T13:18:09.826Z,71.91
2023-04-20T13:20:36.692Z,71.87
2023-04-20T13:23:04.176Z,72.17
2023-04-20T13:25:34.527Z,72.29
2023-04-20T13:28:02.831Z,72.14
2023-04-20T13:30:29.411Z,71.68
2023-04-20T13:32:55.984Z,72.37
2023-04-20T13:35:23.545Z,73.22
2023-04-20T13:37:50.343Z,72.59
2023-04-20T13:40:16.851Z,73.09
2023-04-20T13:42:43.330Z,73.27
2023-04-20T13:45:10.418Z,72.79
2023-04-20T13:47:38.509Z,72.98
2023-04-20T13:50:06.606Z,72.96
2023-04-20T13:52:33.312Z,73.96
2023-04-20T13:54:59.804Z,75.26
2023-04-20T13:57:26.251Z,74.10
2023-04-20T13:59:53.052Z,72.77
2023-04-20T14:02:19.658Z,73.52
2023-04-20T14:04:46.334Z,72.82
2023-04-20T14:07:12.824Z,73.73
2023-04-20T14:09:39.252Z,73.90
2023-04-20T14:12:05.877Z,72.49
2023-04-20T14:14:32.417Z,73.88
2023-04-20T14:16:58.862Z,72.13
2023-04-20T14:19:25.329Z,73.09
2023-04-20T14:21:51.803Z,73.78
2023-04-20T14:24:18.553Z,72.65
2023-04-20T14:26:45.201Z,73.38
2023-04-20T14:29:11.775Z,73.66
2023-04-20T14:31:38.349Z,74.01
2023-04-20T14:34:04.820Z,74.48
2023-04-20T14:36:32.368Z,74.99
2023-04-20T14:38:58.769Z,74.60
2023-04-20T14:41:25.202Z,74.27
2023-04-20T14:43:51.666Z,74.08
2023-04-20T14:46:18.732Z,74.17
2023-04-20T14:48:46.466Z,74.55
2023-04-20T14:51:13.440Z,75.61
2023-04-20T14:53:39.919Z,75.34
2023-04-20T14:56:06.480Z,75.82
2023-04-20T14:58:33.364Z,75.59
2023-04-20T15:00:59.803Z,74.80
2023-04-20T15:03:26.544Z,74.75
2023-04-20T15:05:53.562Z,75.00
2023-04-20T15:08:19.986Z,74.63
2023-04-20T15:10:46.489Z,74.88
2023-04-20T15:13:13.339Z,74.14
2023-04-20T15:15:48.295Z,73.37
2023-04-20T15:18:16.512Z,73.77
2023-04-20T15:20:43.062Z,74.49
2023-04-20T15:23:09.512Z,74.08
2023-04-20T15:25:35.988Z,73.99
2023-04-20T15:28:02.399Z,73.67
2023-04-20T15:30:30.216Z,74.20
2023-04-20T15:33:04.632Z,74.56
2023-04-20T15:35:31.954Z,73.93
2023-04-20T15:37:58.413Z,74.24
2023-04-20T15:40:24.968Z,73.91
2023-04-20T15:42:51.627Z,73.85
2023-04-20T15:45:18.151Z,74.56
2023-04-20T15:47:44.685Z,74.15
2023-04-20T15:50:11.305Z,74.61
2023-04-20T15:52:37.797Z,75.40
2023-04-20T15:55:04.766Z,75.92
2023-04-20T15:57:31.391Z,75.48
2023-04-20T15:59:57.933Z,75.88
2023-04-20T16:02:24.616Z,75.90
2023-04-20T16:04:51.431Z,75.77
2023-04-20T16:07:18.025Z,75.99
2023-04-20T16:09:44.476Z,75.43
2023-04-20T16:12:11.007Z,74.42
2023-04-20T16:14:37.455Z,75.13
2023-04-20T16:17:03.963Z,75.47
2023-04-20T16:19:31.301Z,74.95
2023-04-20T16:21:58.203Z,75.55
2023-04-20T16:24:24.664Z,74.88
2023-04-20T16:26:51.295Z,74.80
2023-04-20T16:29:17.728Z,75.06
2023-04-20T16:31:44.306Z,74.63
2023-04-20T16:34:10.905Z,74.49
2023-04-20T16:36:37.410Z,74.80
2023-04-20T16:39:06.075Z,75.16
2023-04-20T16:41:32.518Z,74.67
2023-04-20T16:43:58.968Z,74.93
2023-04-20T16:46:25.765Z,75.04
2023-04-20T16:48:54.418Z,75.50
2023-04-20T16:51:20.903Z,75.05
2023-04-20T16:53:47.408Z,74.83
2023-04-20T16:56:15.645Z,74.86
2023-04-20T16:58:42.098Z,75.29
2023-04-20T17:01:08.740Z,75.53
2023-04-20T17:03:35.504Z,75.84
2023-04-20T17:06:07.266Z,75.58
2023-04-20T17:08:34.724Z,75.46
2023-04-20T17:11:01.870Z,75.12
2023-04-20T17:13:28.508Z,75.46
2023-04-20T17:15:55.013Z,75.18
2023-04-20T17:18:21.815Z,75.38
2023-04-20T17:20:48.527Z,75.16
2023-04-20T17:23:17.687Z,75.58
2023-04-20T17:25:47.131Z,74.70
2023-04-20T17:28:13.936Z,74.78
2023-04-20T17:30:41.366Z,75.09
2023-04-20T17:33:12.330Z,75.51
2023-04-20T17:35:39.374Z,75.61
2023-04-20T17:38:05.968Z,75.41
2023-04-20T17:40:32.496Z,75.70
2023-04-20T17:42:58.924Z,75.81
2023-04-20T17:45:25.730Z,76.66
2023-04-20T17:47:53.521Z,76.58
2023-04-20T17:50:20.254Z,76.30
2023-04-20T17:52:46.671Z,76.39
2023-04-20T17:55:13.191Z,77.34
2023-04-20T17:57:39.761Z,77.23
2023-04-20T18:00:08.555Z,77.04
2023-04-20T18:02:39.258Z,77.30
2023-04-20T18:05:06.346Z,77.65
2023-04-20T18:07:32.853Z,77.47
2023-04-20T18:09:59.262Z,77.71
2023-04-20T18:12:25.911Z,77.93
2023-04-20T18:14:52.370Z,78.20
2023-04-20T18:17:18.869Z,78.23
2023-04-20T18:19:45.672Z,78.24
2023-04-20T18:22:12.261Z,78.03
2023-04-20T18:24:38.705Z,78.72
2023-04-20T18:27:05.399Z,78.67
2023-04-20T18:29:31.813Z,79.01
2023-04-20T18:32:01.084Z,78.83
2023-04-20T18:34:30.896Z,78.72
2023-04-20T18:36:58.208Z,78.92
2023-04-20T18:39:25.427Z,79.40
2023-04-20T18:41:51.888Z,79.10
2023-04-20T18:44:18.501Z,79.23
2023-04-20T18:46:45.405Z,79.30
2023-04-20T18:49:11.974Z,79.09
2023-04-20T18:51:38.468Z,79.37
2023-04-20T18:54:05.097Z,79.34
2023-04-20T18:56:32.219Z,79.44
2023-04-20T18:58:59.465Z,79.71
2023-04-20T19:01:26.196Z,79.49
2023-04-20T19:03:52.905Z,79.71
2023-04-20T19:06:19.680Z,79.55
2023-04-20T19:08:46.098Z,79.47
2023-04-20T19:11:12.539Z,79.70
2023-04-20T19:13:44.357Z,80.01
2023-04-20T19:16:12.284Z,79.77
2023-04-20T19:18:39.240Z,79.92
2023-04-20T19:21:05.944Z,79.82
2023-04-20T19:23:32.532Z,79.55
2023-04-20T19:25:59.008Z,79.52
2023-04-20T19:28:25.498Z,79.24
2023-04-20T19:30:51.956Z,79.66
2023-04-20T19:33:18.724Z,79.87
2023-04-20T19:35:50.501Z,79.59
2023-04-20T19:38:21.453Z,80.36
2023-04-20T19:40:48.786Z,79.94
2023-04-20T19:43:16.819Z,79.99
2023-04-20T19:45:43.356Z,80.05
2023-04-20T19:48:09.854Z,79.97
2023-04-20T19:50:36.462Z,79.90
2023-04-20T19:53:02.946Z,79.94
2023-04-20T19:55:29.544Z,80.07
2023-04-20T19:57:56.126Z,80.56
2023-04-20T20:00:22.639Z,80.43
2023-04-20T20:02:49.266Z,80.71
2023-04-20T20:05:15.888Z,80.41
2023-04-20T20:07:42.584Z,80.32
2023-04-20T20:10:09.071Z,80.62
2023-04-20T20:12:35.643Z,80.36
2023-04-20T20:15:03.815Z,80.72
2023-04-20T20:17:30.328Z,80.43
2023-04-20T20:19:56.816Z,80.52
2023-04-20T20:22:23.265Z,80.44
2023-04-20T20:24:51.873Z,80.47
2023-04-20T20:27:18.896Z,80.37
2023-04-20T20:29:45.763Z,80.33
2023-04-20T20:32:12.238Z,80.65
2023-04-20T20:34:39.173Z,80.20
2023-04-20T20:37:05.939Z,80.39
2023-04-20T20:39:32.696Z,80.45
2023-04-20T20:41:59.744Z,80.87
2023-04-20T20:44:27.865Z,80.37
2023-04-20T20:46:54.927Z,80.63
2023-04-20T20:49:21.573Z,80.30
2023-04-20T20:51:48.212Z,80.34
2023-04-20T20:54:14.911Z,80.44
2023-04-20T20:56:41.688Z,80.36
2023-04-20T20:59:08.388Z,80.83
2023-04-20T21:01:34.944Z,80.63
2023-04-20T21:04:02.122Z,80.70
2023-04-20T21:06:29.461Z,80.71
2023-04-20T21:08:56.184Z,80.55
2023-04-20T21:11:22.951Z,80.18
2023-04-20T21:13:49.818Z,80.17
2023-04-20T21:16:16.860Z,80.24
2023-04-20T21:18:43.285Z,80.65
2023-04-20T21:21:14.133Z,81.04
2023-04-20T21:23:40.657Z,80.94
2023-04-20T21:26:07.232Z,81.26
2023-04-20T21:28:34.747Z,81.30
2023-04-20T21:31:01.389Z,81.30
2023-04-20T21:33:27.941Z,81.23
2023-04-20T21:35:57.648Z,81.16
2023-04-20T21:38:25.573Z,80.95
2023-04-20T21:40:52.429Z,81.27
2023-04-20T21:43:18.972Z,81.08
2023-04-20T21:45:45.534Z,81.32
2023-04-20T21:48:12.420Z,81.32
2023-04-20T21:50:39.183Z,81.27
2023-04-20T21:53:05.746Z,80.88
2023-04-20T21:55:32.763Z,80.92
2023-04-20T21:57:59.169Z,80.61
2023-04-20T22:00:25.634Z,80.70
2023-04-20T22:02:52.233Z,80.30
2023-04-20T22:05:19.603Z,80.50
2023-04-20T22:07:46.685Z,79.78
2023-04-20T22:10:13.445Z,80.08
2023-04-20T22:12:42.251Z,80.00
2023-04-20T22:15:14.422Z,80.33
2023-04-20T22:17:41.995Z,80.33
2023-04-20T22:20:10.485Z,80.57
2023-04-20T22:22:38.912Z,80.67
2023-04-20T22:25:06.982Z,80.65
2023-04-20T22:27:35.856Z,80.41
2023-04-20T22:30:02.781Z,80.65
2023-04-20T22:32:29.234Z,80.60
2023-04-20T22:34:55.874Z,80.68
2023-04-20T22:37:22.343Z,80.83
2023-04-20T22:39:48.838Z,80.99
2023-04-20T22:42:15.717Z,80.91
2023-04-20T22:44:42.185Z,80.70
2023-04-20T22:47:08.772Z,80.29
2023-04-20T22:49:35.830Z,80.56
2023-04-20T22:52:02.774Z,80.47
2023-04-20T22:54:29.696Z,80.36
2023-04-20T22:56:56.909Z,80.28
2023-04-20T22:59:23.438Z,79.83
2023-04-20T23:01:49.879Z,80.51
2023-04-20T23:04:16.708Z,80.43
2023-04-20T23:06:43.947Z,80.20
2023-04-20T23:09:17.066Z,80.13
2023-04-20T23:11:47.177Z,80.46
2023-04-20T23:14:14.090Z,80.20
2023-04-20T23:16:41.035Z,80.49
2023-04-20T23:19:07.680Z,80.15
2023-04-20T23:21:34.097Z,80.08
2023-04-20T23:24:00.636Z,80.11
2023-04-20T23:26:27.111Z,79.48
2023-04-20T23:28:53.731Z,79.73
2023-04-20T23:31:20.685Z,79.53
2023-04-20T23:33:47.948Z,79.64
2023-04-20T23:36:14.754Z,79.28
2023-04-20T23:38:41.933Z,79.84
2023-04-20T23:41:10.284Z,81.02
2023-04-20T23:43:38.496Z,82.60
2023-04-20T23:46:05.909Z,82.54
2023-04-20T23:48:32.785Z,82.99
2023-04-20T23:50:59.554Z,83.15
2023-04-20T23:53:26.508Z,83.28
2023-04-20T23:55:55.426Z,83.13
2023-04-20T23:58:28.456Z,82.91
